sensor_id;sensor_type;location;lat;lon;timestamp;pressure;altitude;pressure_sealevel;temperature;humidity
35694;BME280;21812;55.536;37.664;2023-09-19T00:00:23;100305.03;;;11.81;75.37
35694;BME280;21812;55.536;37.664;2023-09-19T00:02:58;100224.91;;;11.34;75.39
35694;BME280;21812;55.536;37.664;2023-09-19T00:05:28;100270.13;;;11.59;75.69
35694;BME280;21812;55.536;37.664;2023-09-19T00:07:56;100310.91;;;11.76;75.89
35694;BME280;21812;55.536;37.664;2023-09-19T00:10:25;100315.72;;;11.81;76.43
35694;BME280;21812;55.536;37.664;2023-09-19T00:12:58;100314.34;;;11.85;76.65
35694;BME280;21812;55.536;37.664;2023-09-19T00:15:26;100295.41;;;11.71;76.26
35694;BME280;21812;55.536;37.664;2023-09-19T00:17:55;100305.38;;;11.78;76.22
35694;BME280;21812;55.536;37.664;2023-09-19T00:20:22;100291.34;;;11.76;76.20
35694;BME280;21812;55.536;37.664;2023-09-19T00:22:51;100300.13;;;11.84;76.38
35694;BME280;21812;55.536;37.664;2023-09-19T00:25:19;100309.31;;;11.90;76.31
35694;BME280;21812;55.536;37.664;2023-09-19T00:27:48;100304.59;;;11.92;76.42
35694;BME280;21812;55.536;37.664;2023-09-19T00:30:17;100288.22;;;11.87;76.23
35694;BME280;21812;55.536;37.664;2023-09-19T00:32:48;100305.06;;;11.96;76.33
35694;BME280;21812;55.536;37.664;2023-09-19T00:35:14;100302.38;;;11.96;76.36
35694;BME280;21812;55.536;37.664;2023-09-19T00:37:44;100304.84;;;11.97;76.70
35694;BME280;21812;55.536;37.664;2023-09-19T00:40:11;100304.03;;;11.97;76.59
35694;BME280;21812;55.536;37.664;2023-09-19T00:42:41;100313.28;;;11.94;76.43
35694;BME280;21812;55.536;37.664;2023-09-19T00:45:08;100314.72;;;11.97;76.79
35694;BME280;21812;55.536;37.664;2023-09-19T00:47:49;100299.13;;;12.00;77.20
35694;BME280;21812;55.536;37.664;2023-09-19T00:50:18;100266.63;;;11.73;76.88
35694;BME280;21812;55.536;37.664;2023-09-19T00:52:46;100310.50;;;12.02;77.06
35694;BME280;21812;55.536;37.664;2023-09-19T00:55:14;100255.94;;;11.73;76.95
35694;BME280;21812;55.536;37.664;2023-09-19T00:57:40;100304.97;;;12.04;76.80
35694;BME280;21812;55.536;37.664;2023-09-19T01:00:08;100308.28;;;12.06;76.81
35694;BME280;21812;55.536;37.664;2023-09-19T01:02:37;100292.97;;;12.00;77.05
35694;BME280;21812;55.536;37.664;2023-09-19T01:05:04;100291.75;;;12.02;77.28
35694;BME280;21812;55.536;37.664;2023-09-19T01:07:32;100303.09;;;12.04;77.26
35694;BME280;21812;55.536;37.664;2023-09-19T01:10:03;100299.44;;;12.05;77.52
35694;BME280;21812;55.536;37.664;2023-09-19T01:15:21;100303.94;;;12.05;78.40
35694;BME280;21812;55.536;37.664;2023-09-19T01:18:02;100266.72;;;11.80;78.80
35694;BME280;21812;55.536;37.664;2023-09-19T01:26:10;100312.59;;;12.22;78.91
35694;BME280;21812;55.536;37.664;2023-09-19T01:31:31;100226.50;;;11.73;79.00
35694;BME280;21812;55.536;37.664;2023-09-19T01:34:02;100272.56;;;11.99;79.39
35694;BME280;21812;55.536;37.664;2023-09-19T01:36:32;100311.31;;;12.18;79.81
35694;BME280;21812;55.536;37.664;2023-09-19T01:39:08;100270.06;;;11.97;80.16
35694;BME280;21812;55.536;37.664;2023-09-19T01:45:03;100300.06;;;12.22;81.05
35694;BME280;21812;55.536;37.664;2023-09-19T01:47:19;100249.69;;;11.96;81.13
35694;BME280;21812;55.536;37.664;2023-09-19T01:49:55;100285.75;;;12.15;81.32
35694;BME280;21812;55.536;37.664;2023-09-19T01:52:30;100289.44;;;12.14;81.48
35694;BME280;21812;55.536;37.664;2023-09-19T01:55:05;100249.03;;;11.94;81.63
35694;BME280;21812;55.536;37.664;2023-09-19T01:57:37;100246.38;;;11.94;81.60
35694;BME280;21812;55.536;37.664;2023-09-19T02:00:07;100275.59;;;12.10;81.89
35694;BME280;21812;55.536;37.664;2023-09-19T02:02:44;100245.34;;;11.95;81.88
35694;BME280;21812;55.536;37.664;2023-09-19T02:05:10;100282.13;;;12.23;81.71
35694;BME280;21812;55.536;37.664;2023-09-19T02:07:38;100274.28;;;12.21;81.71
35694;BME280;21812;55.536;37.664;2023-09-19T02:10:06;100277.44;;;12.25;81.51
35694;BME280;21812;55.536;37.664;2023-09-19T02:12:33;100263.41;;;12.23;81.48
35694;BME280;21812;55.536;37.664;2023-09-19T02:15:04;100273.06;;;12.24;81.73
35694;BME280;21812;55.536;37.664;2023-09-19T02:17:33;100258.34;;;12.13;81.43
35694;BME280;21812;55.536;37.664;2023-09-19T02:19:59;100273.19;;;12.16;81.60
35694;BME280;21812;55.536;37.664;2023-09-19T02:22:28;100257.41;;;12.06;82.23
35694;BME280;21812;55.536;37.664;2023-09-19T02:24:56;100268.59;;;12.09;82.10
35694;BME280;21812;55.536;37.664;2023-09-19T02:27:25;100260.56;;;12.09;82.28
35694;BME280;21812;55.536;37.664;2023-09-19T02:29:51;100265.91;;;12.09;82.21
35694;BME280;21812;55.536;37.664;2023-09-19T02:32:17;100262.59;;;12.07;82.33
35694;BME280;21812;55.536;37.664;2023-09-19T02:34:44;100257.13;;;12.01;82.43
35694;BME280;21812;55.536;37.664;2023-09-19T02:37:11;100268.31;;;12.04;82.57
35694;BME280;21812;55.536;37.664;2023-09-19T02:39:39;100263.88;;;11.97;82.38
35694;BME280;21812;55.536;37.664;2023-09-19T02:42:05;100259.94;;;11.92;82.67
35694;BME280;21812;55.536;37.664;2023-09-19T02:44:31;100263.81;;;11.90;82.90
35694;BME280;21812;55.536;37.664;2023-09-19T02:46:58;100261.28;;;11.88;82.83
35694;BME280;21812;55.536;37.664;2023-09-19T02:49:24;100265.13;;;11.86;82.95
35694;BME280;21812;55.536;37.664;2023-09-19T02:51:52;100261.81;;;11.84;82.78
35694;BME280;21812;55.536;37.664;2023-09-19T02:54:18;100259.34;;;11.82;82.83
35694;BME280;21812;55.536;37.664;2023-09-19T02:56:44;100259.16;;;11.84;82.73
35694;BME280;21812;55.536;37.664;2023-09-19T02:59:10;100253.72;;;11.77;82.67
35694;BME280;21812;55.536;37.664;2023-09-19T03:01:36;100264.97;;;11.72;82.99
35694;BME280;21812;55.536;37.664;2023-09-19T03:04:05;100267.00;;;11.70;83.00
35694;BME280;21812;55.536;37.664;2023-09-19T03:06:35;100258.31;;;11.68;83.18
35694;BME280;21812;55.536;37.664;2023-09-19T03:09:00;100269.03;;;11.68;83.34
35694;BME280;21812;55.536;37.664;2023-09-19T03:11:26;100270.88;;;11.68;83.41
35694;BME280;21812;55.536;37.664;2023-09-19T03:13:56;100270.13;;;11.74;83.43
35694;BME280;21812;55.536;37.664;2023-09-19T03:16:22;100266.53;;;11.82;83.54
35694;BME280;21812;55.536;37.664;2023-09-19T03:18:51;100278.72;;;11.84;83.17
35694;BME280;21812;55.536;37.664;2023-09-19T03:21:17;100268.66;;;11.86;82.96
35694;BME280;21812;55.536;37.664;2023-09-19T03:23:45;100255.19;;;11.80;82.94
35694;BME280;21812;55.536;37.664;2023-09-19T03:26:14;100277.84;;;11.92;82.96
35694;BME280;21812;55.536;37.664;2023-09-19T03:28:42;100273.31;;;11.92;82.91
35694;BME280;21812;55.536;37.664;2023-09-19T03:31:09;100263.81;;;11.90;82.68
35694;BME280;21812;55.536;37.664;2023-09-19T03:33:36;100270.69;;;11.99;82.68
35694;BME280;21812;55.536;37.664;2023-09-19T03:36:04;100269.25;;;11.97;82.48
35694;BME280;21812;55.536;37.664;2023-09-19T03:38:31;100264.53;;;11.99;82.59
35694;BME280;21812;55.536;37.664;2023-09-19T03:40:58;100264.53;;;11.99;82.70
35694;BME280;21812;55.536;37.664;2023-09-19T03:43:24;100253.63;;;12.00;82.61
35694;BME280;21812;55.536;37.664;2023-09-19T03:45:50;100248.75;;;12.04;82.54
35694;BME280;21812;55.536;37.664;2023-09-19T03:48:18;100250.66;;;12.10;82.37
35694;BME280;21812;55.536;37.664;2023-09-19T03:50:44;100249.47;;;12.12;82.13
35694;BME280;21812;55.536;37.664;2023-09-19T03:53:09;100247.06;;;12.03;81.55
35694;BME280;21812;55.536;37.664;2023-09-19T03:55:35;100260.09;;;12.06;82.14
35694;BME280;21812;55.536;37.664;2023-09-19T03:58:02;100258.69;;;12.10;82.31
35694;BME280;21812;55.536;37.664;2023-09-19T04:00:28;100258.53;;;12.11;81.89
35694;BME280;21812;55.536;37.664;2023-09-19T04:02:55;100246.88;;;12.04;81.72
35694;BME280;21812;55.536;37.664;2023-09-19T04:05:24;100251.03;;;12.07;81.73
35694;BME280;21812;55.536;37.664;2023-09-19T04:07:50;100261.75;;;12.07;81.94
35694;BME280;21812;55.536;37.664;2023-09-19T04:10:16;100257.97;;;12.01;81.51
35694;BME280;21812;55.536;37.664;2023-09-19T04:12:52;100258.53;;;12.11;81.63
35694;BME280;21812;55.536;37.664;2023-09-19T04:15:19;100260.72;;;12.08;81.42
35694;BME280;21812;55.536;37.664;2023-09-19T04:17:49;100259.72;;;12.09;81.51
35694;BME280;21812;55.536;37.664;2023-09-19T04:20:16;100262.19;;;12.10;81.23
35694;BME280;21812;55.536;37.664;2023-09-19T04:22:43;100247.34;;;12.08;81.31
35694;BME280;21812;55.536;37.664;2023-09-19T04:25:08;100246.13;;;12.10;81.85
35694;BME280;21812;55.536;37.664;2023-09-19T04:27:34;100233.31;;;12.06;81.64
35694;BME280;21812;55.536;37.664;2023-09-19T04:30:00;100241.63;;;12.11;81.52
35694;BME280;21812;55.536;37.664;2023-09-19T04:32:28;100167.53;;;11.67;81.72
35694;BME280;21812;55.536;37.664;2023-09-19T04:34:54;100231.28;;;12.08;81.35
35694;BME280;21812;55.536;37.664;2023-09-19T04:37:25;100242.28;;;12.13;81.63
35694;BME280;21812;55.536;37.664;2023-09-19T04:39:51;100244.56;;;12.16;81.74
35694;BME280;21812;55.536;37.664;2023-09-19T04:42:17;100239.38;;;12.15;81.34
35694;BME280;21812;55.536;37.664;2023-09-19T04:44:43;100243.28;;;12.12;81.56
35694;BME280;21812;55.536;37.664;2023-09-19T04:47:08;100247.41;;;12.15;81.96
35694;BME280;21812;55.536;37.664;2023-09-19T04:49:34;100243.38;;;12.19;81.91
35694;BME280;21812;55.536;37.664;2023-09-19T04:52:00;100236.97;;;12.20;81.22
35694;BME280;21812;55.536;37.664;2023-09-19T04:54:26;100231.63;;;12.20;81.44
35694;BME280;21812;55.536;37.664;2023-09-19T04:56:52;100229.59;;;12.22;81.47
35694;BME280;21812;55.536;37.664;2023-09-19T04:59:18;100232.28;;;12.22;81.31
35694;BME280;21812;55.536;37.664;2023-09-19T05:01:44;100232.28;;;12.22;81.19
35694;BME280;21812;55.536;37.664;2023-09-19T05:04:09;100230.22;;;12.24;81.16
35694;BME280;21812;55.536;37.664;2023-09-19T05:06:35;100227.47;;;12.32;81.47
35694;BME280;21812;55.536;37.664;2023-09-19T05:09:01;100220.31;;;12.39;80.92
35694;BME280;21812;55.536;37.664;2023-09-19T05:11:27;100217.44;;;12.41;80.75
35694;BME280;21812;55.536;37.664;2023-09-19T05:13:55;100218.25;;;12.41;80.68
35694;BME280;21812;55.536;37.664;2023-09-19T05:16:21;100219.00;;;12.50;81.08
35694;BME280;21812;55.536;37.664;2023-09-19T05:18:47;100218.34;;;12.48;80.45
35694;BME280;21812;55.536;37.664;2023-09-19T05:21:15;100216.50;;;12.48;80.59
35694;BME280;21812;55.536;37.664;2023-09-19T05:23:41;100214.53;;;12.57;80.83
35694;BME280;21812;55.536;37.664;2023-09-19T05:26:08;100220.72;;;12.58;80.44
35694;BME280;21812;55.536;37.664;2023-09-19T05:28:33;100215.34;;;12.58;80.32
35694;BME280;21812;55.536;37.664;2023-09-19T05:31:01;100216.00;;;12.60;80.41
35694;BME280;21812;55.536;37.664;2023-09-19T05:33:29;100212.94;;;12.63;80.60
35694;BME280;21812;55.536;37.664;2023-09-19T05:35:57;100221.44;;;12.66;80.60
35694;BME280;21812;55.536;37.664;2023-09-19T05:38:23;100205.91;;;12.62;80.49
35694;BME280;21812;55.536;37.664;2023-09-19T05:40:49;100214.59;;;12.64;80.06
35694;BME280;21812;55.536;37.664;2023-09-19T05:43:15;100220.97;;;12.63;79.99
35694;BME280;21812;55.536;37.664;2023-09-19T05:45:41;100214.34;;;12.59;80.33
35694;BME280;21812;55.536;37.664;2023-09-19T05:48:09;100170.97;;;12.27;80.39
35694;BME280;21812;55.536;37.664;2023-09-19T05:50:35;100207.72;;;12.55;80.39
35694;BME280;21812;55.536;37.664;2023-09-19T05:53:02;100217.25;;;12.64;80.55
35694;BME280;21812;55.536;37.664;2023-09-19T05:55:27;100210.53;;;12.68;80.66
35694;BME280;21812;55.536;37.664;2023-09-19T05:57:54;100212.25;;;12.76;80.90
35694;BME280;21812;55.536;37.664;2023-09-19T06:00:20;100209.41;;;12.84;81.02
35694;BME280;21812;55.536;37.664;2023-09-19T06:02:51;100200.94;;;12.80;80.85
35694;BME280;21812;55.536;37.664;2023-09-19T06:05:18;100202.47;;;12.89;80.77
35694;BME280;21812;55.536;37.664;2023-09-19T06:07:43;100203.75;;;13.00;81.13
35694;BME280;21812;55.536;37.664;2023-09-19T06:10:09;100203.84;;;13.07;80.76
35694;BME280;21812;55.536;37.664;2023-09-19T06:12:42;100205.72;;;13.13;80.97
35694;BME280;21812;55.536;37.664;2023-09-19T06:15:15;100199.56;;;13.19;80.70
35694;BME280;21812;55.536;37.664;2023-09-19T06:17:48;100204.13;;;13.19;80.44
35694;BME280;21812;55.536;37.664;2023-09-19T06:20:15;100199.81;;;13.24;81.00
35694;BME280;21812;55.536;37.664;2023-09-19T06:22:41;100202.44;;;13.39;83.93
35694;BME280;21812;55.536;37.664;2023-09-19T06:25:09;100152.84;;;15.32;96.43
35694;BME280;21812;55.536;37.664;2023-09-19T06:27:38;100189.47;;;16.75;100.00
35694;BME280;21812;55.536;37.664;2023-09-19T06:30:08;100191.88;;;16.90;100.00
35694;BME280;21812;55.536;37.664;2023-09-19T06:32:35;100187.75;;;17.12;100.00
35694;BME280;21812;55.536;37.664;2023-09-19T06:35:01;100159.94;;;17.30;98.29
35694;BME280;21812;55.536;37.664;2023-09-19T06:37:30;100168.56;;;17.76;93.67
35694;BME280;21812;55.536;37.664;2023-09-19T06:39:55;100151.00;;;18.04;85.25
35694;BME280;21812;55.536;37.664;2023-09-19T06:42:22;100166.28;;;18.40;82.90
35694;BME280;21812;55.536;37.664;2023-09-19T06:44:49;100159.66;;;18.66;80.48
35694;BME280;21812;55.536;37.664;2023-09-19T06:47:15;100143.25;;;18.91;79.42
35694;BME280;21812;55.536;37.664;2023-09-19T06:49:42;100148.41;;;19.17;77.44
35694;BME280;21812;55.536;37.664;2023-09-19T06:52:10;100148.16;;;19.30;74.62
35694;BME280;21812;55.536;37.664;2023-09-19T06:54:36;100164.19;;;19.31;71.83
35694;BME280;21812;55.536;37.664;2023-09-19T06:57:03;100172.53;;;19.30;71.71
35694;BME280;21812;55.536;37.664;2023-09-19T06:59:29;100168.06;;;19.36;70.89
35694;BME280;21812;55.536;37.664;2023-09-19T07:01:55;100157.59;;;19.27;65.91
35694;BME280;21812;55.536;37.664;2023-09-19T07:04:20;100158.44;;;18.50;62.88
35694;BME280;21812;55.536;37.664;2023-09-19T07:06:49;100169.91;;;17.67;64.88
35694;BME280;21812;55.536;37.664;2023-09-19T07:09:16;100172.28;;;17.01;67.21
35694;BME280;21812;55.536;37.664;2023-09-19T07:11:42;100173.28;;;16.75;68.05
35694;BME280;21812;55.536;37.664;2023-09-19T07:14:08;100186.66;;;16.63;68.00
35694;BME280;21812;55.536;37.664;2023-09-19T07:16:37;100184.25;;;16.48;68.47
35694;BME280;21812;55.536;37.664;2023-09-19T07:19:05;100186.16;;;16.41;69.63
35694;BME280;21812;55.536;37.664;2023-09-19T07:21:31;100180.63;;;16.36;70.73
35694;BME280;21812;55.536;37.664;2023-09-19T07:24:01;100182.94;;;16.26;70.63
35694;BME280;21812;55.536;37.664;2023-09-19T07:26:30;100175.34;;;16.16;71.27
35694;BME280;21812;55.536;37.664;2023-09-19T07:28:57;100179.91;;;16.09;71.70
35694;BME280;21812;55.536;37.664;2023-09-19T07:31:23;100170.63;;;16.05;71.62
35694;BME280;21812;55.536;37.664;2023-09-19T07:33:50;100180.19;;;16.00;71.84
35694;BME280;21812;55.536;37.664;2023-09-19T07:36:17;100179.56;;;16.05;72.55
35694;BME280;21812;55.536;37.664;2023-09-19T07:38:43;100173.31;;;16.05;72.09
35694;BME280;21812;55.536;37.664;2023-09-19T07:41:09;100178.31;;;16.01;72.08
35694;BME280;21812;55.536;37.664;2023-09-19T07:43:37;100168.78;;;16.05;71.98
35694;BME280;21812;55.536;37.664;2023-09-19T07:46:06;100167.50;;;16.08;72.63
35694;BME280;21812;55.536;37.664;2023-09-19T07:48:35;100164.41;;;16.04;72.48
35694;BME280;21812;55.536;37.664;2023-09-19T07:51:06;100124.75;;;15.79;72.38
35694;BME280;21812;55.536;37.664;2023-09-19T07:53:33;100144.38;;;15.93;72.86
35694;BME280;21812;55.536;37.664;2023-09-19T07:56:07;100180.09;;;16.14;73.15
35694;BME280;21812;55.536;37.664;2023-09-19T07:58:33;100167.38;;;16.28;72.89
35694;BME280;21812;55.536;37.664;2023-09-19T08:01:07;100153.81;;;16.41;72.10
35694;BME280;21812;55.536;37.664;2023-09-19T08:03:33;100144.28;;;16.45;71.98
35694;BME280;21812;55.536;37.664;2023-09-19T08:06:00;100151.53;;;16.45;72.16
35694;BME280;21812;55.536;37.664;2023-09-19T08:08:27;100154.88;;;16.40;71.51
35694;BME280;21812;55.536;37.664;2023-09-19T08:10:54;100147.44;;;16.35;71.32
35694;BME280;21812;55.536;37.664;2023-09-19T08:13:23;100151.09;;;16.48;71.62
35694;BME280;21812;55.536;37.664;2023-09-19T08:15:49;100148.50;;;16.59;71.77
35694;BME280;21812;55.536;37.664;2023-09-19T08:18:17;100152.59;;;16.69;71.07
35694;BME280;21812;55.536;37.664;2023-09-19T08:20:43;100145.06;;;16.77;70.71
35694;BME280;21812;55.536;37.664;2023-09-19T08:23:14;100136.28;;;16.89;69.99
35694;BME280;21812;55.536;37.664;2023-09-19T08:25:39;100130.00;;;16.95;70.37
35694;BME280;21812;55.536;37.664;2023-09-19T08:28:05;100132.09;;;16.93;70.44
35694;BME280;21812;55.536;37.664;2023-09-19T08:30:34;100130.22;;;16.93;70.48
35694;BME280;21812;55.536;37.664;2023-09-19T08:33:00;100127.09;;;16.96;70.56
35694;BME280;21812;55.536;37.664;2023-09-19T08:35:27;100125.13;;;17.04;70.58
35694;BME280;21812;55.536;37.664;2023-09-19T08:37:53;100121.31;;;17.11;69.91
35694;BME280;21812;55.536;37.664;2023-09-19T08:40:21;100131.25;;;17.17;69.85
35694;BME280;21812;55.536;37.664;2023-09-19T08:45:23;100125.91;;;17.29;68.93
35694;BME280;21812;55.536;37.664;2023-09-19T08:50:51;100109.34;;;17.44;70.04
35694;BME280;21812;55.536;37.664;2023-09-19T08:55:59;100113.47;;;17.47;69.00
35694;BME280;21812;55.536;37.664;2023-09-19T08:58:41;100103.09;;;17.62;68.99
35694;BME280;21812;55.536;37.664;2023-09-19T09:01:09;100108.78;;;17.91;68.83
35694;BME280;21812;55.536;37.664;2023-09-19T09:03:40;100070.28;;;17.95;68.63
35694;BME280;21812;55.536;37.664;2023-09-19T09:06:08;100067.50;;;18.26;66.75
35694;BME280;21812;55.536;37.664;2023-09-19T09:08:38;100097.09;;;18.63;66.28
35694;BME280;21812;55.536;37.664;2023-09-19T09:11:07;100092.41;;;18.70;65.74
35694;BME280;21812;55.536;37.664;2023-09-19T09:13:35;100088.41;;;18.84;65.71
35694;BME280;21812;55.536;37.664;2023-09-19T09:16:01;100084.91;;;18.84;64.62
35694;BME280;21812;55.536;37.664;2023-09-19T09:18:28;100052.78;;;18.75;64.69
35694;BME280;21812;55.536;37.664;2023-09-19T09:20:57;100084.38;;;19.22;64.94
35694;BME280;21812;55.536;37.664;2023-09-19T09:23:23;100079.44;;;19.31;65.00
35694;BME280;21812;55.536;37.664;2023-09-19T09:25:54;100076.72;;;19.31;63.73
35694;BME280;21812;55.536;37.664;2023-09-19T09:28:25;100075.41;;;19.33;64.61
35694;BME280;21812;55.536;37.664;2023-09-19T09:30:51;100067.06;;;19.35;63.94
35694;BME280;21812;55.536;37.664;2023-09-19T09:33:17;100070.81;;;19.34;63.36
35694;BME280;21812;55.536;37.664;2023-09-19T09:36:03;100066.44;;;19.45;64.45
35694;BME280;21812;55.536;37.664;2023-09-19T09:38:43;100069.88;;;19.40;63.66
35694;BME280;21812;55.536;37.664;2023-09-19T09:41:10;100060.03;;;19.22;63.66
35694;BME280;21812;55.536;37.664;2023-09-19T09:43:38;100062.88;;;19.16;63.89
35694;BME280;21812;55.536;37.664;2023-09-19T09:46:13;100066.16;;;19.18;64.77
35694;BME280;21812;55.536;37.664;2023-09-19T09:49:05;100066.63;;;19.14;64.50
35694;BME280;21812;55.536;37.664;2023-09-19T09:52:07;100047.78;;;19.20;64.46
35694;BME280;21812;55.536;37.664;2023-09-19T09:55:02;100056.81;;;19.37;64.90
35694;BME280;21812;55.536;37.664;2023-09-19T09:57:34;100042.88;;;19.45;64.74
35694;BME280;21812;55.536;37.664;2023-09-19T10:00:01;100050.47;;;19.72;64.34
35694;BME280;21812;55.536;37.664;2023-09-19T10:02:38;100046.44;;;20.03;63.94
35694;BME280;21812;55.536;37.664;2023-09-19T10:05:17;100021.28;;;20.08;61.84
35694;BME280;21812;55.536;37.664;2023-09-19T10:07:53;100047.56;;;20.75;61.38
35694;BME280;21812;55.536;37.664;2023-09-19T10:10:33;100022.00;;;21.10;60.54
35694;BME280;21812;55.536;37.664;2023-09-19T10:13:11;100036.31;;;21.44;59.65
35694;BME280;21812;55.536;37.664;2023-09-19T10:15:39;100030.41;;;21.53;59.20
35694;BME280;21812;55.536;37.664;2023-09-19T10:18:12;100031.84;;;21.60;58.52
35694;BME280;21812;55.536;37.664;2023-09-19T10:20:45;100001.47;;;21.41;58.17
35694;BME280;21812;55.536;37.664;2023-09-19T10:23:12;100026.72;;;21.64;57.89
35694;BME280;21812;55.536;37.664;2023-09-19T10:25:40;100034.19;;;22.06;57.08
35694;BME280;21812;55.536;37.664;2023-09-19T10:28:07;100019.75;;;22.28;55.60
35694;BME280;21812;55.536;37.664;2023-09-19T10:30:44;100016.38;;;22.58;55.79
35694;BME280;21812;55.536;37.664;2023-09-19T10:33:14;100002.03;;;23.15;55.14
35694;BME280;21812;55.536;37.664;2023-09-19T10:35:45;100008.31;;;23.21;53.35
35694;BME280;21812;55.536;37.664;2023-09-19T10:38:13;99988.94;;;23.12;53.23
35694;BME280;21812;55.536;37.664;2023-09-19T10:40:40;100001.47;;;23.18;52.62
35694;BME280;21812;55.536;37.664;2023-09-19T10:43:12;99995.09;;;22.97;53.99
35694;BME280;21812;55.536;37.664;2023-09-19T10:45:38;100002.72;;;22.95;54.17
35694;BME280;21812;55.536;37.664;2023-09-19T10:48:06;99999.63;;;23.39;54.27
35694;BME280;21812;55.536;37.664;2023-09-19T10:51:22;99987.16;;;23.64;52.74
35694;BME280;21812;55.536;37.664;2023-09-19T10:53:21;99991.88;;;24.05;51.96
35694;BME280;21812;55.536;37.664;2023-09-19T10:55:56;99980.09;;;24.66;50.63
35694;BME280;21812;55.536;37.664;2023-09-19T10:58:29;99982.69;;;25.56;49.53
35694;BME280;21812;55.536;37.664;2023-09-19T11:01:00;99974.41;;;26.06;47.10
35694;BME280;21812;55.536;37.664;2023-09-19T11:03:32;99968.22;;;26.54;46.75
35694;BME280;21812;55.536;37.664;2023-09-19T11:06:14;99964.56;;;27.07;45.47
35694;BME280;21812;55.536;37.664;2023-09-19T11:08:57;99967.56;;;28.05;44.38
35694;BME280;21812;55.536;37.664;2023-09-19T11:11:39;99963.00;;;28.75;41.32
35694;BME280;21812;55.536;37.664;2023-09-19T11:30:45;99950.25;;;29.80;38.46
35694;BME280;21812;55.536;37.664;2023-09-19T11:33:30;99957.94;;;30.46;37.94
35694;BME280;21812;55.536;37.664;2023-09-19T11:49:30;99961.44;;;31.70;35.13
35694;BME280;21812;55.536;37.664;2023-09-19T11:52:01;99956.13;;;32.77;33.37
35694;BME280;21812;55.536;37.664;2023-09-19T11:54:31;99943.59;;;33.30;32.13
35694;BME280;21812;55.536;37.664;2023-09-19T11:56:58;99951.16;;;33.63;31.39
35694;BME280;21812;55.536;37.664;2023-09-19T11:59:26;99937.13;;;33.68;30.86
35694;BME280;21812;55.536;37.664;2023-09-19T12:02:06;99950.84;;;32.15;33.17
35694;BME280;21812;55.536;37.664;2023-09-19T12:04:39;99947.97;;;31.77;34.57
35694;BME280;21812;55.536;37.664;2023-09-19T12:09:43;99940.78;;;33.18;33.23
35694;BME280;21812;55.536;37.664;2023-09-19T12:12:28;99932.69;;;34.46;31.00
35694;BME280;21812;55.536;37.664;2023-09-19T12:14:56;99926.94;;;34.88;30.05
35694;BME280;21812;55.536;37.664;2023-09-19T12:17:44;99931.63;;;35.53;29.40
35694;BME280;21812;55.536;37.664;2023-09-19T12:20:13;99921.44;;;35.16;29.36
35694;BME280;21812;55.536;37.664;2023-09-19T12:22:43;99925.91;;;34.56;30.06
35694;BME280;21812;55.536;37.664;2023-09-19T12:25:10;99915.75;;;34.84;29.46
35694;BME280;21812;55.536;37.664;2023-09-19T12:27:48;99916.38;;;35.47;28.45
35694;BME280;21812;55.536;37.664;2023-09-19T12:30:15;99921.25;;;34.97;29.66
35694;BME280;21812;55.536;37.664;2023-09-19T12:32:43;99917.94;;;34.79;29.87
35694;BME280;21812;55.536;37.664;2023-09-19T12:35:10;99914.06;;;35.49;29.01
35694;BME280;21812;55.536;37.664;2023-09-19T12:37:45;99914.44;;;35.75;28.26
35694;BME280;21812;55.536;37.664;2023-09-19T12:40:21;99880.41;;;35.22;28.84
35694;BME280;21812;55.536;37.664;2023-09-19T12:42:54;99909.91;;;35.55;29.18
35694;BME280;21812;55.536;37.664;2023-09-19T12:45:31;99900.47;;;34.78;29.87
35694;BME280;21812;55.536;37.664;2023-09-19T12:48:22;99906.88;;;33.63;31.04
35694;BME280;21812;55.536;37.664;2023-09-19T12:51:08;99917.28;;;32.34;33.31
35694;BME280;21812;55.536;37.664;2023-09-19T12:53:44;99905.13;;;31.62;34.74
35694;BME280;21812;55.536;37.664;2023-09-19T12:56:12;99903.19;;;31.19;35.10
35694;BME280;21812;55.536;37.664;2023-09-19T12:58:54;99895.03;;;31.84;34.42
35694;BME280;21812;55.536;37.664;2023-09-19T13:01:20;99904.94;;;32.41;34.35
35694;BME280;21812;55.536;37.664;2023-09-19T13:04:10;99899.06;;;32.81;33.23
35694;BME280;21812;55.536;37.664;2023-09-19T13:06:37;99898.78;;;32.95;33.07
35694;BME280;21812;55.536;37.664;2023-09-19T13:09:10;99885.69;;;32.83;33.54
35694;BME280;21812;55.536;37.664;2023-09-19T13:11:37;99891.75;;;32.97;33.14
35694;BME280;21812;55.536;37.664;2023-09-19T13:14:23;99855.28;;;32.53;33.69
35694;BME280;21812;55.536;37.664;2023-09-19T13:17:00;99860.50;;;31.16;35.38
35694;BME280;21812;55.536;37.664;2023-09-19T13:22:40;99894.94;;;29.68;39.24
35694;BME280;21812;55.536;37.664;2023-09-19T13:25:27;99862.19;;;29.35;38.95
35694;BME280;21812;55.536;37.664;2023-09-19T13:27:57;99886.28;;;29.74;38.95
35694;BME280;21812;55.536;37.664;2023-09-19T13:30:25;99874.19;;;29.61;39.68
35694;BME280;21812;55.536;37.664;2023-09-19T13:32:52;99852.88;;;29.67;38.70
35694;BME280;21812;55.536;37.664;2023-09-19T13:35:19;99874.00;;;30.12;38.52
35694;BME280;21812;55.536;37.664;2023-09-19T13:37:47;99839.00;;;29.50;39.33
35694;BME280;21812;55.536;37.664;2023-09-19T13:40:14;99850.66;;;29.10;40.04
35694;BME280;21812;55.536;37.664;2023-09-19T13:42:41;99879.94;;;28.78;40.65
35694;BME280;21812;55.536;37.664;2023-09-19T13:45:07;99881.97;;;28.03;42.24
35694;BME280;21812;55.536;37.664;2023-09-19T13:47:38;99870.56;;;27.30;43.55
35694;BME280;21812;55.536;37.664;2023-09-19T13:50:04;99876.09;;;26.63;45.24
35694;BME280;21812;55.536;37.664;2023-09-19T13:52:31;99873.03;;;26.22;46.06